sensor_id;sensor_type;location;lat;lon;timestamp;pressure;altitude;pressure_sealevel;temperature;humidity
33185;BME280;19550;42.872;25.494;2023-07-24T00:01:13;96601.56;;;18.67;100.00
33185;BME280;19550;42.872;25.494;2023-07-24T00:03:39;96599.66;;;18.55;100.00
33185;BME280;19550;42.872;25.494;2023-07-24T00:06:06;96593.00;;;18.59;100.00
33185;BME280;19550;42.872;25.494;2023-07-24T00:08:34;96598.00;;;18.70;100.00
33185;BME280;19550;42.872;25.494;2023-07-24T00:11:01;96589.22;;;18.71;100.00
33185;BME280;19550;42.872;25.494;2023-07-24T00:13:29;96593.16;;;18.67;100.00
33185;BME280;19550;42.872;25.494;2023-07-24T00:15:57;96600.56;;;18.75;100.00
33185;BME280;19550;42.872;25.494;2023-07-24T00:18:24;96597.34;;;18.76;100.00
33185;BME280;19550;42.872;25.494;2023-07-24T00:20:50;96600.81;;;18.70;100.00
33185;BME280;19550;42.872;25.494;2023-07-24T00:23:17;96597.44;;;18.60;100.00
33185;BME280;19550;42.872;25.494;2023-07-24T00:25:45;96591.50;;;18.65;100.00
33185;BME280;19550;42.872;25.494;2023-07-24T00:28:12;96600.25;;;18.80;100.00
33185;BME280;19550;42.872;25.494;2023-07-24T00:30:39;96597.75;;;18.75;100.00
33185;BME280;19550;42.872;25.494;2023-07-24T00:33:06;96595.13;;;18.66;100.00
33185;BME280;19550;42.872;25.494;2023-07-24T00:35:33;96597.25;;;18.53;100.00
33185;BME280;19550;42.872;25.494;2023-07-24T00:37:59;96591.41;;;18.62;100.00
33185;BME280;19550;42.872;25.494;2023-07-24T00:40:26;96600.78;;;18.50;100.00
33185;BME280;19550;42.872;25.494;2023-07-24T00:42:54;96602.25;;;18.44;100.00
33185;BME280;19550;42.872;25.494;2023-07-24T00:45:22;96593.84;;;18.28;100.00
33185;BME280;19550;42.872;25.494;2023-07-24T00:47:50;96595.22;;;18.35;100.00
33185;BME280;19550;42.872;25.494;2023-07-24T00:50:18;96589.44;;;18.27;100.00
33185;BME280;19550;42.872;25.494;2023-07-24T00:52:45;96587.06;;;18.30;100.00
33185;BME280;19550;42.872;25.494;2023-07-24T00:55:13;96586.06;;;18.22;100.00
33185;BME280;19550;42.872;25.494;2023-07-24T00:57:42;96592.78;;;18.17;100.00
33185;BME280;19550;42.872;25.494;2023-07-24T01:00:12;96587.81;;;18.26;100.00
33185;BME280;19550;42.872;25.494;2023-07-24T01:02:39;96583.28;;;18.22;100.00
33185;BME280;19550;42.872;25.494;2023-07-24T01:05:07;96592.16;;;18.24;100.00
33185;BME280;19550;42.872;25.494;2023-07-24T01:07:34;96580.69;;;18.13;100.00
33185;BME280;19550;42.872;25.494;2023-07-24T01:10:01;96581.03;;;18.12;100.00
33185;BME280;19550;42.872;25.494;2023-07-24T01:12:31;96581.28;;;18.22;100.00
33185;BME280;19550;42.872;25.494;2023-07-24T01:15:07;96587.28;;;18.21;100.00
33185;BME280;19550;42.872;25.494;2023-07-24T01:17:42;96582.22;;;18.46;100.00
33185;BME280;19550;42.872;25.494;2023-07-24T01:20:12;96584.41;;;18.37;100.00
33185;BME280;19550;42.872;25.494;2023-07-24T01:22:51;96579.22;;;18.19;100.00
33185;BME280;19550;42.872;25.494;2023-07-24T01:25:28;96588.94;;;18.06;100.00
33185;BME280;19550;42.872;25.494;2023-07-24T01:27:59;96584.97;;;18.07;100.00
33185;BME280;19550;42.872;25.494;2023-07-24T01:30:26;96588.56;;;18.08;100.00
33185;BME280;19550;42.872;25.494;2023-07-24T01:32:52;96590.94;;;18.06;100.00
33185;BME280;19550;42.872;25.494;2023-07-24T01:35:20;96595.78;;;18.09;100.00
33185;BME280;19550;42.872;25.494;2023-07-24T01:37:47;96582.88;;;18.04;100.00
33185;BME280;19550;42.872;25.494;2023-07-24T01:40:15;96596.19;;;17.92;100.00
33185;BME280;19550;42.872;25.494;2023-07-24T01:42:42;96589.69;;;17.88;100.00
33185;BME280;19550;42.872;25.494;2023-07-24T01:45:10;96591.41;;;17.76;100.00
33185;BME280;19550;42.872;25.494;2023-07-24T01:47:38;96590.69;;;17.79;100.00
33185;BME280;19550;42.872;25.494;2023-07-24T01:50:06;96585.25;;;17.71;100.00
33185;BME280;19550;42.872;25.494;2023-07-24T01:52:33;96576.66;;;17.64;100.00
33185;BME280;19550;42.872;25.494;2023-07-24T01:54:59;96592.66;;;17.63;100.00
33185;BME280;19550;42.872;25.494;2023-07-24T01:57:26;96592.91;;;17.58;100.00
33185;BME280;19550;42.872;25.494;2023-07-24T01:59:53;96582.88;;;17.57;100.00
33185;BME280;19550;42.872;25.494;2023-07-24T02:02:21;96589.75;;;17.60;100.00
33185;BME280;19550;42.872;25.494;2023-07-24T02:04:48;96588.75;;;17.52;100.00
33185;BME280;19550;42.872;25.494;2023-07-24T02:07:15;96588.28;;;17.50;100.00
33185;BME280;19550;42.872;25.494;2023-07-24T02:09:42;96593.47;;;17.48;100.00
33185;BME280;19550;42.872;25.494;2023-07-24T02:12:09;96596.44;;;17.39;100.00
33185;BME280;19550;42.872;25.494;2023-07-24T02:14:36;96595.25;;;17.40;100.00
33185;BME280;19550;42.872;25.494;2023-07-24T02:17:03;96593.28;;;17.41;100.00
33185;BME280;19550;42.872;25.494;2023-07-24T02:19:31;96596.13;;;17.29;100.00
33185;BME280;19550;42.872;25.494;2023-07-24T02:21:58;96586.13;;;17.28;100.00
33185;BME280;19550;42.872;25.494;2023-07-24T02:24:25;96588.19;;;17.31;100.00
33185;BME280;19550;42.872;25.494;2023-07-24T02:26:51;96590.53;;;17.29;100.00
33185;BME280;19550;42.872;25.494;2023-07-24T02:29:18;96591.91;;;17.35;100.00
33185;BME280;19550;42.872;25.494;2023-07-24T02:31:45;96599.38;;;17.31;100.00
33185;BME280;19550;42.872;25.494;2023-07-24T02:34:12;96601.13;;;17.51;100.00
33185;BME280;19550;42.872;25.494;2023-07-24T02:36:40;96595.63;;;17.39;100.00
33185;BME280;19550;42.872;25.494;2023-07-24T02:39:07;96592.25;;;17.33;100.00
33185;BME280;19550;42.872;25.494;2023-07-24T02:41:34;96595.41;;;17.32;100.00
33185;BME280;19550;42.872;25.494;2023-07-24T02:44:02;96599.31;;;17.27;100.00
33185;BME280;19550;42.872;25.494;2023-07-24T02:46:29;96596.59;;;17.31;100.00
33185;BME280;19550;42.872;25.494;2023-07-24T02:48:56;96590.28;;;17.34;100.00
33185;BME280;19550;42.872;25.494;2023-07-24T02:51:23;96596.41;;;17.24;100.00
33185;BME280;19550;42.872;25.494;2023-07-24T02:53:53;96598.56;;;17.30;100.00
33185;BME280;19550;42.872;25.494;2023-07-24T02:56:20;96590.25;;;17.18;100.00
33185;BME280;19550;42.872;25.494;2023-07-24T02:58:47;96596.94;;;17.14;100.00
33185;BME280;19550;42.872;25.494;2023-07-24T03:01:14;96588.81;;;17.24;100.00
33185;BME280;19550;42.872;25.494;2023-07-24T03:03:41;96596.25;;;17.32;100.00
33185;BME280;19550;42.872;25.494;2023-07-24T03:06:08;96599.19;;;17.24;100.00
33185;BME280;19550;42.872;25.494;2023-07-24T03:08:34;96600.91;;;17.13;100.00
33185;BME280;19550;42.872;25.494;2023-07-24T03:11:05;96600.41;;;16.95;100.00
33185;BME280;19550;42.872;25.494;2023-07-24T03:13:32;96595.78;;;16.87;100.00
33185;BME280;19550;42.872;25.494;2023-07-24T03:15:59;96604.44;;;16.82;100.00
33185;BME280;19550;42.872;25.494;2023-07-24T03:18:26;96602.69;;;16.77;100.00
33185;BME280;19550;42.872;25.494;2023-07-24T03:20:53;96595.09;;;16.78;100.00
33185;BME280;19550;42.872;25.494;2023-07-24T03:23:19;96594.53;;;16.72;100.00
33185;BME280;19550;42.872;25.494;2023-07-24T03:25:47;96594.19;;;16.74;100.00
33185;BME280;19550;42.872;25.494;2023-07-24T03:28:15;96586.91;;;16.85;100.00
33185;BME280;19550;42.872;25.494;2023-07-24T03:30:42;96589.72;;;16.85;100.00
33185;BME280;19550;42.872;25.494;2023-07-24T03:33:08;96589.22;;;16.95;100.00
33185;BME280;19550;42.872;25.494;2023-07-24T03:35:37;96577.53;;;17.21;100.00
33185;BME280;19550;42.872;25.494;2023-07-24T03:38:04;96587.63;;;17.25;100.00
33185;BME280;19550;42.872;25.494;2023-07-24T03:40:31;96582.84;;;17.26;100.00
33185;BME280;19550;42.872;25.494;2023-07-24T03:42:58;96594.44;;;17.40;100.00
33185;BME280;19550;42.872;25.494;2023-07-24T03:45:26;96584.69;;;17.34;100.00
33185;BME280;19550;42.872;25.494;2023-07-24T03:47:53;96588.03;;;17.39;100.00
33185;BME280;19550;42.872;25.494;2023-07-24T03:50:19;96577.44;;;17.33;100.00
33185;BME280;19550;42.872;25.494;2023-07-24T03:52:47;96594.00;;;17.54;100.00
33185;BME280;19550;42.872;25.494;2023-07-24T03:55:13;96584.44;;;17.70;100.00
33185;BME280;19550;42.872;25.494;2023-07-24T03:57:40;96587.41;;;17.77;100.00
33185;BME280;19550;42.872;25.494;2023-07-24T04:00:08;96587.06;;;17.79;100.00
33185;BME280;19550;42.872;25.494;2023-07-24T04:02:36;96588.41;;;17.85;100.00
33185;BME280;19550;42.872;25.494;2023-07-24T04:05:03;96585.31;;;17.90;100.00
33185;BME280;19550;42.872;25.494;2023-07-24T04:07:30;96578.88;;;18.05;100.00
33185;BME280;19550;42.872;25.494;2023-07-24T04:09:57;96579.41;;;18.11;100.00
33185;BME280;19550;42.872;25.494;2023-07-24T04:12:24;96584.78;;;18.00;100.00
33185;BME280;19550;42.872;25.494;2023-07-24T04:14:51;96588.00;;;18.02;100.00
33185;BME280;19550;42.872;25.494;2023-07-24T04:17:17;96573.91;;;18.14;100.00
33185;BME280;19550;42.872;25.494;2023-07-24T04:19:46;96578.13;;;18.24;100.00
33185;BME280;19550;42.872;25.494;2023-07-24T04:22:12;96587.59;;;18.35;100.00
33185;BME280;19550;42.872;25.494;2023-07-24T04:24:39;96591.75;;;18.41;100.00
33185;BME280;19550;42.872;25.494;2023-07-24T04:27:06;96591.00;;;18.44;100.00
33185;BME280;19550;42.872;25.494;2023-07-24T04:29:33;96585.91;;;18.50;100.00
33185;BME280;19550;42.872;25.494;2023-07-24T04:32:00;96586.38;;;18.52;100.00
33185;BME280;19550;42.872;25.494;2023-07-24T04:34:26;96589.97;;;18.68;100.00
33185;BME280;19550;42.872;25.494;2023-07-24T04:36:55;96582.13;;;18.77;100.00
33185;BME280;19550;42.872;25.494;2023-07-24T04:39:21;96587.38;;;18.79;100.00
33185;BME280;19550;42.872;25.494;2023-07-24T04:41:48;96593.16;;;18.86;100.00
33185;BME280;19550;42.872;25.494;2023-07-24T04:44:16;96593.72;;;18.95;100.00
33185;BME280;19550;42.872;25.494;2023-07-24T04:46:42;96590.56;;;18.96;100.00
33185;BME280;19550;42.872;25.494;2023-07-24T04:49:09;96586.56;;;18.97;100.00
33185;BME280;19550;42.872;25.494;2023-07-24T04:51:36;96589.16;;;19.06;100.00
33185;BME280;19550;42.872;25.494;2023-07-24T04:54:04;96590.25;;;19.21;100.00
33185;BME280;19550;42.872;25.494;2023-07-24T04:56:31;96586.94;;;19.38;100.00
33185;BME280;19550;42.872;25.494;2023-07-24T04:58:58;96584.97;;;19.61;100.00
33185;BME280;19550;42.872;25.494;2023-07-24T05:01:24;96584.50;;;19.78;100.00
33185;BME280;19550;42.872;25.494;2023-07-24T05:03:51;96588.38;;;19.93;100.00
33185;BME280;19550;42.872;25.494;2023-07-24T05:06:18;96583.88;;;20.15;100.00
33185;BME280;19550;42.872;25.494;2023-07-24T05:08:45;96576.19;;;20.12;100.00
33185;BME280;19550;42.872;25.494;2023-07-24T05:11:13;96574.78;;;20.25;100.00
33185;BME280;19550;42.872;25.494;2023-07-24T05:13:40;96578.56;;;20.33;100.00
33185;BME280;19550;42.872;25.494;2023-07-24T05:16:07;96582.31;;;20.40;100.00
33185;BME280;19550;42.872;25.494;2023-07-24T05:18:33;96586.41;;;20.46;100.00
33185;BME280;19550;42.872;25.494;2023-07-24T05:21:00;96586.66;;;20.64;100.00
33185;BME280;19550;42.872;25.494;2023-07-24T05:23:27;96592.03;;;20.76;100.00
33185;BME280;19550;42.872;25.494;2023-07-24T05:25:57;96590.41;;;20.75;100.00
33185;BME280;19550;42.872;25.494;2023-07-24T05:28:26;96586.00;;;20.74;100.00
33185;BME280;19550;42.872;25.494;2023-07-24T05:30:53;96586.59;;;20.90;100.00
33185;BME280;19550;42.872;25.494;2023-07-24T05:33:20;96585.59;;;21.06;100.00
33185;BME280;19550;42.872;25.494;2023-07-24T05:35:48;96586.16;;;21.18;100.00
33185;BME280;19550;42.872;25.494;2023-07-24T05:38:15;96581.44;;;21.26;100.00
33185;BME280;19550;42.872;25.494;2023-07-24T05:40:42;96576.78;;;21.44;100.00
33185;BME280;19550;42.872;25.494;2023-07-24T05:43:08;96579.44;;;21.67;100.00
33185;BME280;19550;42.872;25.494;2023-07-24T05:45:37;96580.72;;;21.76;100.00
33185;BME280;19550;42.872;25.494;2023-07-24T05:48:04;96589.31;;;21.87;99.92
33185;BME280;19550;42.872;25.494;2023-07-24T05:50:33;96574.50;;;22.01;99.74
33185;BME280;19550;42.872;25.494;2023-07-24T05:53:00;96581.47;;;22.14;100.00
33185;BME280;19550;42.872;25.494;2023-07-24T05:55:27;96581.56;;;22.28;99.73
33185;BME280;19550;42.872;25.494;2023-07-24T05:57:53;96576.78;;;22.32;99.85
33185;BME280;19550;42.872;25.494;2023-07-24T06:00:20;96573.59;;;22.37;99.75
33185;BME280;19550;42.872;25.494;2023-07-24T06:02:48;96574.94;;;22.57;99.93
33185;BME280;19550;42.872;25.494;2023-07-24T06:05:15;96571.84;;;22.77;99.18
33185;BME280;19550;42.872;25.494;2023-07-24T06:07:42;96566.69;;;22.96;98.76
33185;BME280;19550;42.872;25.494;2023-07-24T06:10:10;96572.38;;;23.14;96.75
33185;BME280;19550;42.872;25.494;2023-07-24T06:12:36;96567.59;;;23.29;96.31
33185;BME280;19550;42.872;25.494;2023-07-24T06:15:04;96577.41;;;23.56;95.07
33185;BME280;19550;42.872;25.494;2023-07-24T06:17:31;96579.06;;;23.82;94.22
33185;BME280;19550;42.872;25.494;2023-07-24T06:19:59;96574.63;;;24.02;91.93
33185;BME280;19550;42.872;25.494;2023-07-24T06:22:26;96566.13;;;24.09;91.11
33185;BME280;19550;42.872;25.494;2023-07-24T06:24:53;96570.19;;;24.23;91.37
33185;BME280;19550;42.872;25.494;2023-07-24T06:27:20;96562.91;;;24.36;89.50
33185;BME280;19550;42.872;25.494;2023-07-24T06:29:46;96564.06;;;24.70;90.34
33185;BME280;19550;42.872;25.494;2023-07-24T06:32:13;96555.53;;;24.77;89.25
33185;BME280;19550;42.872;25.494;2023-07-24T06:34:40;96568.44;;;24.89;88.00
33185;BME280;19550;42.872;25.494;2023-07-24T06:37:08;96566.78;;;25.09;87.95
33185;BME280;19550;42.872;25.494;2023-07-24T06:39:35;96566.31;;;25.25;87.21
33185;BME280;19550;42.872;25.494;2023-07-24T06:42:02;96575.22;;;25.30;87.30
33185;BME280;19550;42.872;25.494;2023-07-24T06:44:29;96570.66;;;25.47;86.02
33185;BME280;19550;42.872;25.494;2023-07-24T06:46:56;96566.94;;;25.61;85.44
33185;BME280;19550;42.872;25.494;2023-07-24T06:49:23;96568.13;;;25.70;83.57
33185;BME280;19550;42.872;25.494;2023-07-24T06:51:49;96565.97;;;25.89;82.13
33185;BME280;19550;42.872;25.494;2023-07-24T06:54:18;96561.34;;;26.09;79.88
33185;BME280;19550;42.872;25.494;2023-07-24T06:56:44;96563.19;;;26.33;81.63
33185;BME280;19550;42.872;25.494;2023-07-24T06:59:11;96558.97;;;26.48;77.02
33185;BME280;19550;42.872;25.494;2023-07-24T07:01:38;96558.22;;;26.82;76.72
33185;BME280;19550;42.872;25.494;2023-07-24T07:04:05;96554.09;;;26.90;74.85
33185;BME280;19550;42.872;25.494;2023-07-24T07:06:31;96544.22;;;27.02;74.80
33185;BME280;19550;42.872;25.494;2023-07-24T07:08:58;96548.91;;;27.15;74.24
33185;BME280;19550;42.872;25.494;2023-07-24T07:11:27;96548.91;;;27.46;72.68
33185;BME280;19550;42.872;25.494;2023-07-24T07:13:53;96537.72;;;27.62;71.64
33185;BME280;19550;42.872;25.494;2023-07-24T07:16:20;96530.00;;;27.89;69.47
33185;BME280;19550;42.872;25.494;2023-07-24T07:18:47;96534.16;;;27.85;69.26
33185;BME280;19550;42.872;25.494;2023-07-24T07:21:14;96533.13;;;27.98;63.09
33185;BME280;19550;42.872;25.494;2023-07-24T07:23:41;96537.66;;;28.19;63.96
33185;BME280;19550;42.872;25.494;2023-07-24T07:26:07;96534.09;;;28.38;59.91
33185;BME280;19550;42.872;25.494;2023-07-24T07:28:35;96535.88;;;28.52;60.87
33185;BME280;19550;42.872;25.494;2023-07-24T07:31:03;96529.72;;;28.54;62.32
33185;BME280;19550;42.872;25.494;2023-07-24T07:33:29;96533.25;;;28.61;56.15
33185;BME280;19550;42.872;25.494;2023-07-24T07:35:56;96528.66;;;28.67;59.64
33185;BME280;19550;42.872;25.494;2023-07-24T07:38:23;96532.19;;;28.98;60.61
33185;BME280;19550;42.872;25.494;2023-07-24T07:40:50;96533.75;;;28.79;57.90
33185;BME280;19550;42.872;25.494;2023-07-24T07:43:17;96534.28;;;28.94;57.46
33185;BME280;19550;42.872;25.494;2023-07-24T07:45:46;96531.22;;;29.05;58.27
33185;BME280;19550;42.872;25.494;2023-07-24T07:48:13;96539.25;;;29.30;55.87
33185;BME280;19550;42.872;25.494;2023-07-24T07:50:40;96535.66;;;29.45;54.98
33185;BME280;19550;42.872;25.494;2023-07-24T07:53:06;96540.09;;;29.66;56.97
33185;BME280;19550;42.872;25.494;2023-07-24T07:55:33;96534.22;;;29.57;56.26
33185;BME280;19550;42.872;25.494;2023-07-24T07:58:00;96540.06;;;29.86;56.20
33185;BME280;19550;42.872;25.494;2023-07-24T08:00:27;96538.97;;;30.16;56.06
33185;BME280;19550;42.872;25.494;2023-07-24T08:02:55;96538.34;;;30.24;53.93
33185;BME280;19550;42.872;25.494;2023-07-24T08:05:22;96535.75;;;30.14;53.58
33185;BME280;19550;42.872;25.494;2023-07-24T08:07:49;96536.75;;;30.23;52.92
33185;BME280;19550;42.872;25.494;2023-07-24T08:10:15;96529.59;;;30.31;55.45
33185;BME280;19550;42.872;25.494;2023-07-24T08:12:42;96521.09;;;30.28;52.16
33185;BME280;19550;42.872;25.494;2023-07-24T08:15:10;96521.00;;;30.31;52.35
33185;BME280;19550;42.872;25.494;2023-07-24T08:17:37;96516.78;;;30.52;50.33
33185;BME280;19550;42.872;25.494;2023-07-24T08:20:06;96522.97;;;30.51;50.72
33185;BME280;19550;42.872;25.494;2023-07-24T08:22:33;96519.19;;;30.70;51.08
33185;BME280;19550;42.872;25.494;2023-07-24T08:24:59;96524.91;;;30.70;50.78
33185;BME280;19550;42.872;25.494;2023-07-24T08:27:26;96517.06;;;30.87;51.34
33185;BME280;19550;42.872;25.494;2023-07-24T08:29:53;96512.75;;;30.95;50.16
33185;BME280;19550;42.872;25.494;2023-07-24T08:32:20;96501.09;;;31.02;50.07
33185;BME280;19550;42.872;25.494;2023-07-24T08:34:47;96509.81;;;31.40;50.61
33185;BME280;19550;42.872;25.494;2023-07-24T08:37:15;96505.84;;;31.50;49.67
33185;BME280;19550;42.872;25.494;2023-07-24T08:39:42;96514.94;;;31.61;49.54
33185;BME280;19550;42.872;25.494;2023-07-24T08:42:09;96505.09;;;31.62;47.28
33185;BME280;19550;42.872;25.494;2023-07-24T08:44:37;96506.28;;;31.48;47.66
33185;BME280;19550;42.872;25.494;2023-07-24T08:47:06;96515.66;;;31.78;48.32
33185;BME280;19550;42.872;25.494;2023-07-24T08:49:37;96507.84;;;31.78;47.40
33185;BME280;19550;42.872;25.494;2023-07-24T08:52:06;96511.75;;;31.84;46.51
33185;BME280;19550;42.872;25.494;2023-07-24T08:54:35;96508.09;;;31.96;46.30
33185;BME280;19550;42.872;25.494;2023-07-24T08:57:03;96506.38;;;32.24;43.97
33185;BME280;19550;42.872;25.494;2023-07-24T08:59:30;96499.00;;;32.36;44.17
33185;BME280;19550;42.872;25.494;2023-07-24T09:01:57;96504.63;;;32.27;45.41
33185;BME280;19550;42.872;25.494;2023-07-24T09:04:24;96504.72;;;31.98;46.07
33185;BME280;19550;42.872;25.494;2023-07-24T09:06:52;96510.81;;;31.87;44.65
33185;BME280;19550;42.872;25.494;2023-07-24T09:09:19;96505.09;;;32.25;44.64
33185;BME280;19550;42.872;25.494;2023-07-24T09:11:48;96509.56;;;31.76;44.01
33185;BME280;19550;42.872;25.494;2023-07-24T09:14:22;96502.91;;;32.04;43.08
33185;BME280;19550;42.872;25.494;2023-07-24T09:16:49;96502.28;;;32.47;42.44
33185;BME280;19550;42.872;25.494;2023-07-24T09:19:19;96497.44;;;32.69;41.97
33185;BME280;19550;42.872;25.494;2023-07-24T09:21:46;96493.97;;;32.74;40.63
33185;BME280;19550;42.872;25.494;2023-07-24T09:24:13;96500.81;;;32.90;40.65
33185;BME280;19550;42.872;25.494;2023-07-24T09:26:50;96492.06;;;32.46;40.21
33185;BME280;19550;42.872;25.494;2023-07-24T09:29:17;96486.69;;;32.48;41.06
33185;BME280;19550;42.872;25.494;2023-07-24T09:31:44;96497.75;;;32.84;40.56
33185;BME280;19550;42.872;25.494;2023-07-24T09:34:16;96490.66;;;32.63;39.82
33185;BME280;19550;42.872;25.494;2023-07-24T09:36:43;96485.50;;;32.58;40.42
33185;BME280;19550;42.872;25.494;2023-07-24T09:39:10;96484.75;;;32.80;39.62
33185;BME280;19550;42.872;25.494;2023-07-24T09:41:38;96482.31;;;32.91;39.14
33185;BME280;19550;42.872;25.494;2023-07-24T09:44:07;96489.38;;;32.64;39.61
33185;BME280;19550;42.872;25.494;2023-07-24T09:46:34;96486.34;;;32.46;40.26
33185;BME280;19550;42.872;25.494;2023-07-24T09:49:01;96481.59;;;32.52;40.29
33185;BME280;19550;42.872;25.494;2023-07-24T09:51:29;96481.50;;;32.56;40.01
33185;BME280;19550;42.872;25.494;2023-07-24T09:54:01;96474.97;;;32.90;38.94
33185;BME280;19550;42.872;25.494;2023-07-24T09:56:32;96472.97;;;32.78;37.38
33185;BME280;19550;42.872;25.494;2023-07-24T09:59:00;96466.41;;;32.64;40.22
33185;BME280;19550;42.872;25.494;2023-07-24T10:01:32;96465.94;;;33.00;39.79
33185;BME280;19550;42.872;25.494;2023-07-24T10:03:59;96463.81;;;33.13;39.81
33185;BME280;19550;42.872;25.494;2023-07-24T10:06:26;96456.59;;;33.09;40.14
33185;BME280;19550;42.872;25.494;2023-07-24T10:08:54;96455.53;;;33.16;38.83
33185;BME280;19550;42.872;25.494;2023-07-24T10:11:21;96447.78;;;33.25;36.75
33185;BME280;19550;42.872;25.494;2023-07-24T10:13:50;96457.31;;;33.44;37.39
33185;BME280;19550;42.872;25.494;2023-07-24T10:16:17;96441.81;;;33.41;39.83
33185;BME280;19550;42.872;25.494;2023-07-24T10:18:46;96449.44;;;33.66;37.67
33185;BME280;19550;42.872;25.494;2023-07-24T10:21:13;96442.38;;;33.98;38.34
33185;BME280;19550;42.872;25.494;2023-07-24T10:23:42;96435.72;;;34.10;36.65
33185;BME280;19550;42.872;25.494;2023-07-24T10:26:10;96441.91;;;34.58;35.66
33185;BME280;19550;42.872;25.494;2023-07-24T10:28:38;96437.47;;;34.75;34.47
33185;BME280;19550;42.872;25.494;2023-07-24T10:31:06;96435.22;;;34.88;35.55
33185;BME280;19550;42.872;25.494;2023-07-24T10:33:36;96440.00;;;34.91;34.62
33185;BME280;19550;42.872;25.494;2023-07-24T10:36:07;96439.69;;;35.07;34.64
33185;BME280;19550;42.872;25.494;2023-07-24T10:38:36;96434.41;;;35.06;34.34
33185;BME280;19550;42.872;25.494;2023-07-24T10:41:04;96440.97;;;35.06;34.57
33185;BME280;19550;42.872;25.494;2023-07-24T10:43:40;96434.56;;;35.21;33.72
33185;BME280;19550;42.872;25.494;2023-07-24T10:46:08;96432.63;;;35.18;33.04
33185;BME280;19550;42.872;25.494;2023-07-24T10:48:34;96432.63;;;35.36;35.40
33185;BME280;19550;42.872;25.494;2023-07-24T10:51:07;96435.38;;;35.30;34.48
33185;BME280;19550;42.872;25.494;2023-07-24T10:53:35;96428.97;;;35.08;34.56
33185;BME280;19550;42.872;25.494;2023-07-24T10:56:03;96420.00;;;34.42;34.45
33185;BME280;19550;42.872;25.494;2023-07-24T10:58:31;96417.56;;;34.22;35.38
33185;BME280;19550;42.872;25.494;2023-07-24T11:00:58;96408.13;;;34.31;36.19
33185;BME280;19550;42.872;25.494;2023-07-24T11:03:26;96412.47;;;34.36;37.19
33185;BME280;19550;42.872;25.494;2023-07-24T11:05:54;96414.94;;;34.06;34.80
33185;BME280;19550;42.872;25.494;2023-07-24T11:08:22;96417.75;;;34.64;37.38
33185;BME280;19550;42.872;25.494;2023-07-24T11:10:50;96405.13;;;34.71;34.35
33185;BME280;19550;42.872;25.494;2023-07-24T11:13:19;96406.22;;;35.01;32.14
33185;BME280;19550;42.872;25.494;2023-07-24T11:15:46;96408.34;;;35.61;32.38
33185;BME280;19550;42.872;25.494;2023-07-24T11:18:13;96408.94;;;35.83;35.25
33185;BME280;19550;42.872;25.494;2023-07-24T11:20:44;96399.81;;;35.66;30.29
33185;BME280;19550;42.872;25.494;2023-07-24T11:23:11;96401.38;;;35.85;30.78
33185;BME280;19550;42.872;25.494;2023-07-24T11:25:40;96398.38;;;36.04;30.04
33185;BME280;19550;42.872;25.494;2023-07-24T11:28:10;96396.47;;;36.34;30.18
33185;BME280;19550;42.872;25.494;2023-07-24T11:30:37;96395.34;;;36.31;29.44
33185;BME280;19550;42.872;25.494;2023-07-24T11:33:06;96388.44;;;36.05;27.45
33185;BME280;19550;42.872;25.494;2023-07-24T11:35:34;96387.09;;;36.15;32.76
33185;BME280;19550;42.872;25.494;2023-07-24T11:38:01;96385.34;;;36.41;28.43
33185;BME280;19550;42.872;25.494;2023-07-24T11:40:32;96381.78;;;36.85;29.59
33185;BME280;19550;42.872;25.494;2023-07-24T11:43:03;96380.47;;;36.47;29.17
33185;BME280;19550;42.872;25.494;2023-07-24T11:45:30;96382.81;;;36.34;30.54
33185;BME280;19550;42.872;25.494;2023-07-24T11:47:57;96381.59;;;36.26;32.36
33185;BME280;19550;42.872;25.494;2023-07-24T11:50:24;96377.16;;;36.16;32.25
33185;BME280;19550;42.872;25.494;2023-07-24T11:52:52;96378.69;;;36.26;30.44
33185;BME280;19550;42.872;25.494;2023-07-24T11:55:22;96375.19;;;36.46;31.24
33185;BME280;19550;42.872;25.494;2023-07-24T11:57:57;96374.59;;;36.42;30.32
33185;BME280;19550;42.872;25.494;2023-07-24T12:00:25;96363.13;;;36.47;29.43
33185;BME280;19550;42.872;25.494;2023-07-24T12:02:58;96367.91;;;36.50;29.27
33185;BME280;19550;42.872;25.494;2023-07-24T12:05:25;96363.47;;;36.64;32.65
33185;BME280;19550;42.872;25.494;2023-07-24T12:07:54;96363.44;;;36.02;29.73
33185;BME280;19550;42.872;25.494;2023-07-24T12:10:30;96353.72;;;36.23;27.70
33185;BME280;19550;42.872;25.494;2023-07-24T12:12:59;96359.72;;;36.73;33.08
33185;BME280;19550;42.872;25.494;2023-07-24T12:15:27;96355.22;;;36.33;28.21
33185;BME280;19550;42.872;25.494;2023-07-24T12:17:54;96352.44;;;36.62;27.23
33185;BME280;19550;42.872;25.494;2023-07-24T12:20:22;96356.09;;;37.01;32.04
33185;BME280;19550;42.872;25.494;2023-07-24T12:22:49;96350.56;;;36.74;25.51
33185;BME280;19550;42.872;25.494;2023-07-24T12:25:16;96355.56;;;36.74;32.06
33185;BME280;19550;42.872;25.494;2023-07-24T12:27:43;96351.69;;;37.06;32.01
33185;BME280;19550;42.872;25.494;2023-07-24T12:30:10;96358.19;;;37.01;31.53
33185;BME280;19550;42.872;25.494;2023-07-24T12:32:38;96363.84;;;37.10;28.43
33185;BME280;19550;42.872;25.494;2023-07-24T12:35:06;96360.91;;;37.19;30.91
33185;BME280;19550;42.872;25.494;2023-07-24T12:37:33;96358.06;;;37.10;25.46
33185;BME280;19550;42.872;25.494;2023-07-24T12:40:01;96357.59;;;37.26;27.48
33185;BME280;19550;42.872;25.494;2023-07-24T12:42:27;96348.88;;;36.97;28.95
33185;BME280;19550;42.872;25.494;2023-07-24T12:44:54;96349.25;;;37.28;24.89
33185;BME280;19550;42.872;25.494;2023-07-24T12:47:22;96353.28;;;37.51;27.19